Meath Environmental Platform

Observations for Trim Market St

Time AQI Temp °C Hum % Pres Pa CO μg/m³ H₂S μg/m³ NO μg/m³ NO₂ μg/m³ O₃ μg/m³ SO₂ μg/m³ PM1 μg/m³ PM2.5 μg/m³ PM10 μg/m³
Thursday 13 August 2026
18:11 3 34.2 35 66,463 0 25.95 0.02 31.56 63.61 2.56 0.71 3.63 3.99
18:09 3 34.3 35 66,501 0 25.19 0.02 26.28 63.2 2.85 0.71 3.64 4
18:08 3 34.4 35 66,503 0 23.54 0.01 23.06 65.22 2.95 0 2.57 2.83
18:06 3 34.5 35 66,529 0 28.42 0.02 29.62 62.61 3.04 0 3.11 3.42
18:05 3 34.6 35 66,533 0 30.78 0.01 37.03 62.93 2.9 0 2.58 2.83
18:04 3 34.7 34 66,545 0 29.08 0 34.58 64.27 3.21 0.71 3.66 4.03
18:03 3 34.8 34 66,548 0 28.8 0 33.99 63.59 3.13 0.71 3.67 4.04
18:02 3 34.8 34 66,562 0 30.23 0 35.66 63.93 2.99 0.71 3.69 4.05
17:59 3 35.1 33 66,552 0 25.97 0 32.96 61.25 3.24 0 2.63 2.89
17:58 3 35.2 33 66,552 0 23.27 0 26 64.68 3.54 0.71 3.72 4.09
17:57 3 35.2 33 66,588 0 21.21 0 18.61 61.12 3.42 0.71 3.18 3.5
17:49 3 36.1 32 66,684 0 24.63 0 20.78 66.33 4.64 0.71 3.76 4.14
17:47 3 36.3 32 66,729 0 20.42 0 15.15 65.75 5.1 0 2.7 2.97
17:43 3 36.7 31 66,729 0 27.77 0 23.48 69.56 5.12 0 2.72 2.99
17:42 3 36.8 31 66,743 0 24.14 0 20.42 62.51 4.87 0 3.27 3.6
17:41 3 36.9 31 66,754 0 25.83 0 22.25 68.23 4.82 0 3.27 3.6
17:40 3 37.1 31 66,770 0 26.9 0 33.24 58.68 4.7 0 2.73 3.01
17:39 3 37.2 31 66,788 0 23.8 0 23.38 63.08 4.93 0 3.28 3.61
17:38 3 37.3 30 66,811 0 24.14 0 33.39 64.6 3.73 0.71 3.83 4.21
17:37 3 37.4 30 66,811 0 23.73 0 22.77 64.77 4.85 0 3.3 3.63